Airfield :
LOGIN :

Register | Disclaimer

   EN    FR    IT 

 










Legend :    VFR   Marginal VFR   IFR   Intensive IFR   Very Intensive IFR
Visi :
Ceiling :
>= 8 km
>= 3000ft
5 to 8 km
1000 to 3000 ft
1500m to 5 km
500 to 1000 ft
800 to 1500m
200 to 500 ft
< 800m
< 200 ft
Symbols :   Thunderstorms  Fog  Heavy snow  Heavy precipitations  Wind > 20 kt
SIGMETs :     Misc.  Thunderstorms  Icing  Turbulence  Mountain Waves  Volcanic Ashes







- Airport Elevation : 80 ft
- IATA code : LPL
- Download approach charts


EGGP - Liverpool John Lennon

CURRENT METAR :
  • 200320Z 31016KT 8000 -DZ SCT004 BKN010 OVC013 07/05 Q1021

EXPIRED METARs :
  • 200250Z 30012KT 8000 -DZ SCT004 BKN010 OVC013 07/06 Q1021
  • 200220Z 30013KT 7000 -DZ SCT004 OVC010 07/06 Q1020
  • 200150Z 33013KT 300V360 7000 -DZ SCT004 OVC010 08/06 Q1020
  • 200120Z 33013KT 7000 -DZ SCT004 OVC010 08/07 Q1020
  • 200050Z 29009KT 7000 -DZ SCT004 OVC010 08/08 Q1019

TAF AMD TAF EGGP
Valid from the 20 at 03:00 until the 21 at 00:00 UTC


200306Z 2003/2024 30009KT 8000 -RADZ SCT005 BKN009
BECMG 2003/2006 9999 SCT025
BECMG 2010/2013 36013KT
PROB40
TEMPO 2010/2020 36016G26KT
ATIS : +44 151 907 2000 (option 5 or ext 5150)
Met : +44 871 750 5150
No reported NOTAMs for that airfield.



MET'MAP, your aeronautical weather chart ! - Copyright ORBIFLY December 2007 - Disclaimer

ORBIFLY MET'MAP TEAM :

Programming & Development : Alexandra Zaïnal
Concept & Development : Baudouin d'Aumeries
Co-Development & Prog : Marc-Olivier Méhu
Technical & hardware support : Manuel Goepfert

Contact : metmap@orbifly.com




SOURCES & CREDITS :

   NOAA